Plum Island, Massachusetts
Current Conditions -  °F | °C
As of 5:54 AM on Sunday 21 Dec 2014 (Local Time) from KLWM Reporting Station
Overcast Overcast  
Wind Chill: 19°   Ceiling: 1200
Heat Index: 27°   Visibility: 10mi
Dew Point: 21°   Wind: 7mph
Humidity: 78%   Direction: 360°N
Pressure: 30.33"   Gusts: NA
Location:  42.7802°N, 70.8638°W
Report Text: KLWM 211054Z AUTO 36006KT 10SM OVC012 M03/M06 A3033 RMK AO2 SLP272 T10281061
Loading
Personal Weather Stations






























Interactive Weather Map New forecast layout! Learn more

10-Day Weather Forecast

Advertisements
Track Severe Weather on mobile